Airfield :
LOGIN :

Register | Disclaimer

   EN    FR    IT 

 










Legend :    VFR   Marginal VFR   IFR   Intensive IFR   Very Intensive IFR
Visi :
Ceiling :
>= 8 km
>= 3000ft
5 to 8 km
1000 to 3000 ft
1500m to 5 km
500 to 1000 ft
800 to 1500m
200 to 500 ft
< 800m
< 200 ft
Symbols :   Thunderstorms  Fog  Heavy snow  Heavy precipitations  Wind > 20 kt
SIGMETs :     Misc.  Thunderstorms  Icing  Turbulence  Mountain Waves  Volcanic Ashes






- Airport Elevation : 461 ft
- IATA code : WIE


ETOU - Wiesbaden Army

CURRENT METAR :
  • 090756Z AUTO 25004KT 9999 FEW016 SCT025 BKN100 20/17 A3000 RMK AO2 SLP159 T01970165 $

EXPIRED METARs :
  • 090656Z AUTO 23005KT 9999 FEW026 BKN090 BKN140 18/17 A3000 RMK AO2 SLP159 T01840171 $
  • 090556Z AUTO 21004KT 9999 FEW026 OVC070 17/17 A3001 RMK AO2 SLP163 T01680168 10168 20157 53001 $

TAF TAF ETOU
Valid from the 09 at 04:00 until the 10 at 10:00 UTC


090400Z 0904/1010 23009KT 8000 BR OVC015 621206 510006 QNH3003INS
BECMG 0909/0910 25010G18KT 9999 NSW BKN030 510006 QNH3003INS
BECMG 0912/0913 27009KT 9999 SCT060 QNH2995INS
TEMPO 0913/0915 26010G18KT TX27/0914Z TN16/0904Z



MET'MAP, your aeronautical weather chart ! - Copyright ORBIFLY December 2007 - Disclaimer

ORBIFLY MET'MAP TEAM :

Programming & Development : Alexandra Zaïnal
Concept & original design : Baudouin d'Aumeries
Assistance for programming : Marc-Olivier Méhu
Technical & hardware support : Manuel Goepfert

Contact : metmap@orbifly.com




SOURCES & CREDITS :

   NOAA